Jhang Sadar, Pakistan
Current Conditions -  °F | °C
As of 7:55 PM on Thursday 27 Nov 2014 (Local Time) from OPMT Reporting Station
Smoke Smoke  
Wind Chill: 68°   Ceiling: Unl
Heat Index: 68°   Visibility: 1.2mi
Dew Point: 57°   Wind: 5mph
Humidity: 68%   Direction: 50°NE
Pressure: 29.85"   Gusts: NA
Location:  31.27°N, 72.32°E
Report Text: OPMT 271455Z 05004KT 2000 FU NSC 20/14 Q1011 NOSIG
Loading
Personal Weather Stations






























Interactive Weather Map New forecast layout! Learn more

10-Day Weather Forecast

Advertisements
Track Severe Weather on mobile